createdAt,value
2022-12-20T00:01:23.865Z,99482.23
2022-12-20T00:03:53.503Z,99481.16
2022-12-20T00:06:21.858Z,99485.38
2022-12-20T00:09:00.844Z,99484.21
2022-12-20T00:11:29.190Z,99484.05
2022-12-20T00:13:57.699Z,99480.83
2022-12-20T00:16:29.353Z,99480.14
2022-12-20T00:18:59.722Z,99472.55
2022-12-20T00:21:28.271Z,99469.53
2022-12-20T00:23:56.739Z,99461.70
2022-12-20T00:26:26.862Z,99461.98
2022-12-20T00:28:55.233Z,99457.64
2022-12-20T00:31:25.454Z,99457.98
2022-12-20T00:33:55.269Z,99456.65
2022-12-20T00:36:24.784Z,99452.10
2022-12-20T00:38:54.727Z,99453.27
2022-12-20T00:41:25.158Z,99453.95
2022-12-20T00:43:53.247Z,99453.86
2022-12-20T00:46:21.907Z,99451.23
2022-12-20T00:48:49.653Z,99452.26
2022-12-20T00:51:19.860Z,99451.25
2022-12-20T00:53:47.766Z,99453.77
2022-12-20T00:56:15.423Z,99454.27
2022-12-20T00:58:43.861Z,99453.09
2022-12-20T01:01:23.314Z,99449.90
2022-12-20T01:03:51.790Z,99444.95
2022-12-20T01:06:19.995Z,99440.99
2022-12-20T01:08:48.143Z,99434.79
2022-12-20T01:11:25.539Z,99423.04
2022-12-20T01:13:55.747Z,99416.98
2022-12-20T01:16:32.759Z,99416.48
2022-12-20T01:19:00.851Z,99414.77
2022-12-20T01:21:29.270Z,99422.32
2022-12-20T01:23:57.508Z,99444.23
2022-12-20T01:26:28.327Z,99459.20
2022-12-20T01:28:58.195Z,99459.55
2022-12-20T01:31:26.983Z,99446.96
2022-12-20T01:33:54.747Z,99452.64
2022-12-20T01:36:24.992Z,99444.06
2022-12-20T01:39:04.397Z,99437.37
2022-12-20T01:41:33.347Z,99433.95
2022-12-20T01:44:17.571Z,99430.83
2022-12-20T01:46:46.902Z,99424.46
2022-12-20T01:49:32.469Z,99422.11
2022-12-20T01:52:07.228Z,99421.27
2022-12-20T01:54:40.419Z,99416.89
2022-12-20T01:57:17.556Z,99400.33
2022-12-20T01:59:48.756Z,99393.48
2022-12-20T02:02:16.457Z,99392.95
2022-12-20T02:04:44.339Z,99400.31
2022-12-20T02:07:20.316Z,99397.77
2022-12-20T02:09:49.034Z,99395.37
2022-12-20T02:12:20.835Z,99396.25
2022-12-20T02:15:05.582Z,99390.78
2022-12-20T02:18:02.311Z,99386.92
2022-12-20T02:20:59.718Z,99391.63
2022-12-20T02:24:07.440Z,99396.98
2022-12-20T02:26:38.209Z,99405.56
2022-12-20T02:29:22.459Z,99407.80
2022-12-20T02:32:00.507Z,99405.63
2022-12-20T02:34:31.800Z,99393.66
2022-12-20T02:36:59.478Z,99394.81
2022-12-20T02:39:29.709Z,99389.10
2022-12-20T02:42:09.893Z,99388.15
2022-12-20T02:44:44.647Z,99373.04
2022-12-20T02:47:21.323Z,99374.38
2022-12-20T02:49:51.437Z,99375.64
2022-12-20T02:52:23.370Z,99366.52
2022-12-20T02:54:50.955Z,99377.22
2022-12-20T02:57:25.497Z,99393.32
2022-12-20T03:00:09.087Z,99395.23
2022-12-20T03:02:38.063Z,99391.54
2022-12-20T03:05:06.319Z,99390.14
2022-12-20T03:07:34.006Z,99382.35
2022-12-20T03:10:01.586Z,99377.91
2022-12-20T03:12:30.784Z,99374.12
2022-12-20T03:14:58.337Z,99365.17
2022-12-20T03:17:25.873Z,99360.83
2022-12-20T03:19:53.550Z,99358.63
2022-12-20T03:22:21.098Z,99357.22
2022-12-20T03:24:49.685Z,99362.38
2022-12-20T03:27:17.318Z,99371.90
2022-12-20T03:29:45.024Z,99374.17
2022-12-20T03:32:12.826Z,99374.20
2022-12-20T03:34:40.376Z,99365.28
2022-12-20T03:37:08.047Z,99360.04
2022-12-20T03:39:35.759Z,99353.10
2022-12-20T03:42:04.249Z,99348.14
2022-12-20T03:44:31.935Z,99347.56
2022-12-20T03:46:59.612Z,99340.50
2022-12-20T03:49:27.216Z,99346.96
2022-12-20T03:51:54.895Z,99353.52
2022-12-20T03:54:22.684Z,99348.48
2022-12-20T03:56:50.224Z,99348.29
2022-12-20T03:59:17.744Z,99346.88
2022-12-20T04:01:45.406Z,99346.97
2022-12-20T04:04:15.232Z,99352.30
2022-12-20T04:06:43.041Z,99349.34
2022-12-20T04:09:10.878Z,99351.77
2022-12-20T04:11:38.572Z,99353.88
2022-12-20T04:14:06.732Z,99351.21
2022-12-20T04:16:34.724Z,99348.54
2022-12-20T04:19:02.675Z,99350.22
2022-12-20T04:21:32.829Z,99347.51
2022-12-20T04:24:02.344Z,99346.70
2022-12-20T04:26:30.564Z,99346.63
2022-12-20T04:28:58.520Z,99349.16
2022-12-20T04:31:26.143Z,99347.73
2022-12-20T04:33:54.015Z,99351.92
2022-12-20T04:36:21.942Z,99361.86
2022-12-20T04:38:49.501Z,99365.36
2022-12-20T04:41:17.127Z,99364.71
2022-12-20T04:43:44.686Z,99367.41
2022-12-20T04:46:12.257Z,99370.63
2022-12-20T04:48:56.982Z,99360.89
2022-12-20T04:51:26.329Z,99359.56
2022-12-20T04:53:54.122Z,99361.56
2022-12-20T04:56:24.501Z,99358.02
2022-12-20T04:58:54.178Z,99366.90
2022-12-20T05:01:22.556Z,99372.30
2022-12-20T05:03:50.996Z,99366.40
2022-12-20T05:06:18.850Z,99364.85
2022-12-20T05:08:46.453Z,99363.45
2022-12-20T05:11:14.318Z,99359.54
2022-12-20T05:13:41.902Z,99359.19
2022-12-20T05:16:09.556Z,99354.48
2022-12-20T05:18:39.550Z,99349.39
2022-12-20T05:21:10.837Z,99347.37
2022-12-20T05:23:38.615Z,99343.25
2022-12-20T05:26:08.917Z,99338.13
2022-12-20T05:28:36.800Z,99338.33
2022-12-20T05:31:04.607Z,99339.98
2022-12-20T05:33:34.397Z,99340.64
2022-12-20T05:36:02.111Z,99336.95
2022-12-20T05:38:29.681Z,99343.98
2022-12-20T05:40:57.279Z,99346.96
2022-12-20T05:43:24.861Z,99343.63
2022-12-20T05:45:53.211Z,99341.81
2022-12-20T05:48:20.876Z,99338.96
2022-12-20T05:50:48.800Z,99336.30
2022-12-20T05:53:17.690Z,99336.46
2022-12-20T05:55:48.491Z,99336.59
2022-12-20T05:58:16.098Z,99331.04
2022-12-20T06:00:44.715Z,99329.09
2022-12-20T06:03:12.380Z,99324.63
2022-12-20T06:05:40.062Z,99323.45
2022-12-20T06:08:08.026Z,99323.77
2022-12-20T06:10:35.735Z,99325.27
2022-12-20T06:13:04.346Z,99328.59
2022-12-20T06:15:31.947Z,99316.90
2022-12-20T06:17:59.514Z,99311.73
2022-12-20T06:20:27.134Z,99310.02
2022-12-20T06:22:54.714Z,99307.09
2022-12-20T06:25:22.374Z,99303.48
2022-12-20T06:27:49.975Z,99300.22
2022-12-20T06:30:17.950Z,99300.92
2022-12-20T06:32:45.577Z,99302.65
2022-12-20T06:35:14.304Z,99294.42
2022-12-20T06:37:42.353Z,99301.63
2022-12-20T06:40:13.076Z,99307.45
2022-12-20T06:42:40.866Z,99318.17
2022-12-20T06:45:09.154Z,99321.52
2022-12-20T06:47:36.933Z,99318.00
2022-12-20T06:50:05.866Z,99308.27
2022-12-20T06:52:33.475Z,99309.62
2022-12-20T06:55:01.031Z,99307.05
2022-12-20T06:57:28.652Z,99312.27
2022-12-20T06:59:56.224Z,99315.18
2022-12-20T07:02:27.235Z,99318.23
2022-12-20T07:04:55.523Z,99318.25
2022-12-20T07:07:23.176Z,99320.63
2022-12-20T07:09:50.727Z,99315.30
2022-12-20T07:12:18.293Z,99319.09
2022-12-20T07:14:45.879Z,99320.18
2022-12-20T07:17:13.437Z,99325.61
2022-12-20T07:19:45.619Z,99321.27
2022-12-20T07:22:16.336Z,99322.19
2022-12-20T07:24:44.072Z,99324.59
2022-12-20T07:27:11.647Z,99329.52
2022-12-20T07:29:39.596Z,99328.51
2022-12-20T07:32:07.358Z,99323.91
2022-12-20T07:34:37.053Z,99319.80
2022-12-20T07:37:05.065Z,99318.02
2022-12-20T07:39:32.601Z,99317.60
2022-12-20T07:42:00.200Z,99323.89
2022-12-20T07:44:27.935Z,99333.06
2022-12-20T07:46:55.505Z,99332.17
2022-12-20T07:49:23.074Z,99326.69
2022-12-20T07:51:55.553Z,99316.82
2022-12-20T07:54:30.022Z,99313.01
2022-12-20T07:57:03.660Z,99295.75
2022-12-20T07:59:41.782Z,99297.81
2022-12-20T08:02:14.516Z,99288.95
2022-12-20T08:04:42.493Z,99282.14
2022-12-20T08:07:10.635Z,99278.88
2022-12-20T08:09:41.824Z,99282.28
2022-12-20T08:12:12.744Z,99283.02
2022-12-20T08:14:40.847Z,99281.38
2022-12-20T08:17:08.461Z,99283.08
2022-12-20T08:19:36.051Z,99286.29
2022-12-20T08:22:05.494Z,99289.34
2022-12-20T08:24:33.546Z,99286.49
2022-12-20T08:27:01.124Z,99288.73
2022-12-20T08:29:28.845Z,99287.55
2022-12-20T08:31:56.401Z,99278.47
2022-12-20T08:34:24.023Z,99284.39
2022-12-20T08:36:51.698Z,99289.50
2022-12-20T08:39:19.702Z,99291.77
2022-12-20T08:41:47.662Z,99295.16
2022-12-20T08:44:15.289Z,99295.67
2022-12-20T08:46:42.929Z,99295.84
2022-12-20T08:49:10.520Z,99298.54
2022-12-20T08:51:38.112Z,99301.42
2022-12-20T08:54:06.371Z,99294.21
2022-12-20T08:56:33.947Z,99296.10
2022-12-20T08:59:01.520Z,99299.90
2022-12-20T09:01:29.163Z,99293.05
2022-12-20T09:03:56.815Z,99288.19
2022-12-20T09:06:24.435Z,99292.09
2022-12-20T09:08:52.895Z,99285.17
2022-12-20T09:11:25.461Z,99288.86
2022-12-20T09:13:55.131Z,99285.64
2022-12-20T09:16:25.056Z,99283.09
2022-12-20T09:19:00.717Z,99280.55
2022-12-20T09:21:32.720Z,99281.56
2022-12-20T09:24:00.754Z,99272.95
2022-12-20T09:26:28.437Z,99276.33
2022-12-20T09:28:56.394Z,99279.18
2022-12-20T09:31:25.896Z,99274.61
2022-12-20T09:33:55.692Z,99267.50
2022-12-20T09:36:24.491Z,99256.85
2022-12-20T09:38:52.348Z,99258.55
2022-12-20T09:41:28.006Z,99257.03
2022-12-20T09:43:57.444Z,99267.36
2022-12-20T09:46:26.260Z,99269.23
2022-12-20T09:48:54.316Z,99276.86
2022-12-20T09:51:43.326Z,99276.33
2022-12-20T09:54:31.847Z,99269.00
2022-12-20T09:57:15.210Z,99268.11
2022-12-20T09:59:49.301Z,99255.86
2022-12-20T10:05:17.295Z,99229.95
2022-12-20T10:08:15.597Z,99226.91
2022-12-20T10:10:46.155Z,99213.92
2022-12-20T10:13:37.910Z,99204.84
2022-12-20T10:16:32.101Z,99198.35
2022-12-20T10:19:30.912Z,99198.19
2022-12-20T10:22:16.588Z,99204.35
2022-12-20T10:25:01.604Z,99208.02
2022-12-20T10:27:29.258Z,99212.21
2022-12-20T10:29:57.008Z,99206.06
2022-12-20T10:32:24.813Z,99201.24
2022-12-20T10:35:00.651Z,99189.02
2022-12-20T10:37:28.248Z,99193.20
2022-12-20T10:39:55.884Z,99196.27
2022-12-20T10:42:37.113Z,99205.64
2022-12-20T10:45:32.570Z,99206.89
2022-12-20T10:48:22.281Z,99202.86
2022-12-20T10:51:17.464Z,99193.40
2022-12-20T10:54:02.785Z,99185.31
2022-12-20T10:56:32.708Z,99175.02
2022-12-20T10:59:03.230Z,99166.25
2022-12-20T11:01:37.151Z,99166.60
2022-12-20T11:04:20.981Z,99158.51
2022-12-20T11:06:48.753Z,99161.05
2022-12-20T11:09:35.702Z,99158.52
2022-12-20T11:17:38.193Z,99144.08
2022-12-20T11:20:25.531Z,99138.13
2022-12-20T11:23:34.973Z,99125.77
2022-12-20T11:26:21.222Z,99110.69
2022-12-20T11:29:11.334Z,99101.54
2022-12-20T11:32:13.033Z,99097.80
2022-12-20T11:35:17.348Z,99106.32
2022-12-20T11:38:12.245Z,99119.03
2022-12-20T11:41:01.677Z,99116.17
2022-12-20T11:43:48.089Z,99118.75
2022-12-20T11:46:57.352Z,99119.67
2022-12-20T11:49:34.120Z,99120.79
2022-12-20T11:52:43.112Z,99120.88
2022-12-20T11:55:13.448Z,99126.96
2022-12-20T11:58:09.437Z,99111.36
2022-12-20T12:00:35.877Z,99110.03
2022-12-20T12:03:16.160Z,99109.52
2022-12-20T12:05:47.656Z,99109.45
2022-12-20T12:08:21.794Z,99109.35
2022-12-20T12:10:58.060Z,99108.43
2022-12-20T12:13:28.802Z,99105.55
2022-12-20T12:16:18.609Z,99100.48
2022-12-20T12:18:47.011Z,99097.62
2022-12-20T12:21:26.287Z,99104.07
2022-12-20T12:24:25.808Z,99109.52
2022-12-20T12:26:53.784Z,99099.27
2022-12-20T12:29:22.314Z,99093.35
2022-12-20T12:32:06.438Z,99093.02
2022-12-20T12:35:08.687Z,99101.70
2022-12-20T12:37:42.320Z,99097.48
2022-12-20T12:40:33.897Z,99096.31
2022-12-20T12:43:19.850Z,99094.80
2022-12-20T12:45:56.299Z,99094.00
2022-12-20T12:48:30.479Z,99087.08
2022-12-20T12:50:59.228Z,99083.41
2022-12-20T12:53:36.829Z,99078.20
2022-12-20T12:56:47.581Z,99075.88
2022-12-20T12:59:33.481Z,99077.77
2022-12-20T13:02:04.066Z,99075.59
2022-12-20T13:04:52.728Z,99071.55
2022-12-20T13:07:41.885Z,99063.61
2022-12-20T13:10:09.446Z,99058.57
2022-12-20T13:12:37.092Z,99068.20
2022-12-20T13:15:19.926Z,99073.93
2022-12-20T13:17:52.201Z,99074.79
2022-12-20T13:20:27.846Z,99079.67
2022-12-20T13:23:07.841Z,99073.41
2022-12-20T13:25:37.084Z,99072.89
2022-12-20T13:28:31.470Z,99068.16
2022-12-20T13:31:01.976Z,99071.55
2022-12-20T13:33:50.996Z,99072.25
2022-12-20T13:36:36.643Z,99071.77
2022-12-20T13:39:24.286Z,99065.52
2022-12-20T13:42:13.810Z,99076.67
2022-12-20T13:44:45.328Z,99079.04
2022-12-20T13:47:21.242Z,99083.42
2022-12-20T13:49:48.868Z,99079.23
2022-12-20T13:52:34.375Z,99077.70
2022-12-20T13:55:16.473Z,99072.99
2022-12-20T13:57:45.359Z,99076.02
2022-12-20T14:00:19.560Z,99077.69
2022-12-20T14:02:47.324Z,99080.73
2022-12-20T14:05:31.316Z,99083.92
2022-12-20T14:08:13.951Z,99083.10
2022-12-20T14:10:41.797Z,99082.77
2022-12-20T14:13:24.776Z,99078.70
2022-12-20T14:15:54.476Z,99082.75
2022-12-20T14:18:25.377Z,99084.61
2022-12-20T14:20:59.569Z,99073.99
2022-12-20T14:23:37.792Z,99071.48
2022-12-20T14:26:10.913Z,99079.20
2022-12-20T14:28:50.803Z,99087.61
2022-12-20T14:31:41.569Z,99084.21
2022-12-20T14:34:09.102Z,99079.33
2022-12-20T14:36:42.473Z,99069.90
2022-12-20T14:39:28.023Z,99072.27
2022-12-20T14:41:59.792Z,99077.30
2022-12-20T14:44:30.698Z,99077.45
2022-12-20T14:47:17.623Z,99084.52
2022-12-20T14:50:19.655Z,99076.75
2022-12-20T14:52:47.531Z,99071.39
2022-12-20T14:55:24.944Z,99078.95
2022-12-20T14:57:55.355Z,99075.92
2022-12-20T15:00:31.444Z,99074.89
2022-12-20T15:03:11.257Z,99063.44
2022-12-20T15:05:47.848Z,99067.98
2022-12-20T15:08:26.188Z,99059.52
2022-12-20T15:10:55.634Z,99059.19
2022-12-20T15:13:28.919Z,99058.86
2022-12-20T15:15:59.085Z,99055.83
2022-12-20T15:18:26.820Z,99052.95
2022-12-20T15:21:02.361Z,99055.98
2022-12-20T15:23:33.266Z,99053.26
2022-12-20T15:26:04.231Z,99053.27
2022-12-20T15:28:33.462Z,99056.27
2022-12-20T15:31:02.130Z,99059.80
2022-12-20T15:33:32.515Z,99064.50
2022-12-20T15:36:00.454Z,99056.94
2022-12-20T15:39:03.115Z,99060.30
2022-12-20T15:41:36.307Z,99047.01
2022-12-20T15:44:07.341Z,99044.52
2022-12-20T15:46:35.402Z,99043.98
2022-12-20T15:49:03.702Z,99038.09
2022-12-20T15:51:37.265Z,99030.36
2022-12-20T15:54:13.145Z,99035.73
2022-12-20T15:56:40.905Z,99037.06
2022-12-20T15:59:32.356Z,99037.56
2022-12-20T16:01:56.903Z,99041.23
2022-12-20T16:04:24.885Z,99037.73
2022-12-20T16:06:52.487Z,99033.39
2022-12-20T16:09:21.093Z,99032.71
2022-12-20T16:11:48.811Z,99030.86
2022-12-20T16:14:19.553Z,99027.31
2022-12-20T16:16:48.167Z,99027.45
2022-12-20T16:19:16.324Z,99027.60
2022-12-20T16:21:47.519Z,99026.23
2022-12-20T16:24:19.167Z,99025.06
2022-12-20T16:26:48.875Z,99028.77
2022-12-20T16:29:16.560Z,99025.55
2022-12-20T16:31:44.640Z,99032.76
2022-12-20T16:34:14.965Z,99030.22
2022-12-20T16:36:42.986Z,99029.36
2022-12-20T16:39:10.758Z,99022.77
2022-12-20T16:41:41.177Z,99014.67
2022-12-20T16:44:13.498Z,99014.17
2022-12-20T16:46:41.606Z,99017.52
2022-12-20T16:49:17.994Z,99024.42
2022-12-20T16:51:48.867Z,99032.13
2022-12-20T16:54:20.686Z,99030.60
2022-12-20T16:56:50.924Z,99033.77
2022-12-20T16:59:21.543Z,99035.60
2022-12-20T17:01:54.260Z,99024.83
2022-12-20T17:04:23.314Z,99005.66
2022-12-20T17:06:51.020Z,99015.23
2022-12-20T17:09:19.900Z,99015.05
2022-12-20T17:11:47.672Z,99007.49
2022-12-20T17:14:15.319Z,99008.82
2022-12-20T17:16:42.978Z,99009.82
2022-12-20T17:19:10.959Z,99008.80
2022-12-20T17:24:28.527Z,99004.40
2022-12-20T17:26:56.222Z,99008.40
2022-12-20T17:29:23.806Z,99008.06
2022-12-20T17:31:51.732Z,99013.95
2022-12-20T17:34:20.791Z,99015.33
2022-12-20T17:36:50.370Z,99017.17
2022-12-20T17:39:18.018Z,99010.96
2022-12-20T17:41:46.951Z,99004.40
2022-12-20T17:44:17.312Z,99009.11
2022-12-20T17:46:45.293Z,99007.43
2022-12-20T17:49:13.656Z,99014.78
2022-12-20T17:51:41.456Z,99010.59
2022-12-20T17:54:17.253Z,99001.83
2022-12-20T17:56:45.283Z,98993.77
2022-12-20T17:59:14.167Z,98989.92
2022-12-20T18:01:43.740Z,98988.41
2022-12-20T18:04:13.786Z,98989.41
2022-12-20T18:06:43.595Z,98982.69
2022-12-20T18:09:17.392Z,98977.80
2022-12-20T18:11:45.663Z,98986.02
2022-12-20T18:14:14.384Z,98991.05
2022-12-20T18:16:42.174Z,98992.70
2022-12-20T18:19:17.333Z,98986.18
2022-12-20T18:21:44.968Z,98975.27
2022-12-20T18:24:14.479Z,98973.44
2022-12-20T18:26:44.237Z,98969.89
2022-12-20T18:29:12.063Z,98970.73
2022-12-20T18:31:39.737Z,98964.84
2022-12-20T18:34:07.453Z,98962.63
2022-12-20T18:36:37.160Z,98958.44
2022-12-20T18:39:06.941Z,98957.08
2022-12-20T18:41:35.212Z,98957.93
2022-12-20T18:44:05.774Z,98955.93
2022-12-20T18:46:33.464Z,98948.04
2022-12-20T18:49:01.979Z,98943.34
2022-12-20T18:51:35.109Z,98939.48
2022-12-20T18:54:03.354Z,98939.66
2022-12-20T18:56:33.420Z,98943.02
2022-12-20T18:59:10.208Z,98938.13
2022-12-20T19:01:40.528Z,98936.26
2022-12-20T19:04:08.728Z,98937.43
2022-12-20T19:06:37.688Z,98945.66
2022-12-20T19:09:08.949Z,98952.88
2022-12-20T19:11:37.092Z,98953.54
2022-12-20T19:14:05.359Z,98951.50
2022-12-20T19:16:33.498Z,98952.14
2022-12-20T19:19:02.824Z,98955.11
2022-12-20T19:21:33.002Z,98950.02
2022-12-20T19:24:03.790Z,98945.78
2022-12-20T19:26:31.657Z,98944.89
2022-12-20T19:28:59.350Z,98944.18
2022-12-20T19:31:30.387Z,98937.92
2022-12-20T19:34:04.936Z,98934.02
2022-12-20T19:36:38.639Z,98928.07
2022-12-20T19:39:11.980Z,98926.35
2022-12-20T19:41:39.716Z,98926.16
2022-12-20T19:44:07.403Z,98923.95
2022-12-20T19:46:35.288Z,98925.89
2022-12-20T19:49:02.912Z,98925.48
2022-12-20T19:51:30.735Z,98922.73
2022-12-20T19:53:58.626Z,98917.46
2022-12-20T19:56:28.735Z,98910.88
2022-12-20T19:58:57.232Z,98907.64
2022-12-20T20:01:26.236Z,98908.27
2022-12-20T20:03:55.960Z,98919.71
2022-12-20T20:06:25.055Z,98924.77
2022-12-20T20:08:53.608Z,98929.16
2022-12-20T20:11:21.309Z,98930.34
2022-12-20T20:13:49.829Z,98925.30
2022-12-20T20:16:22.266Z,98923.95
2022-12-20T20:18:51.143Z,98923.27
2022-12-20T20:21:22.381Z,98924.80
2022-12-20T20:23:51.636Z,98920.64
2022-12-20T20:26:25.433Z,98913.30
2022-12-20T20:28:53.311Z,98914.97
2022-12-20T20:31:21.924Z,98908.94
2022-12-20T20:33:50.566Z,98923.69
2022-12-20T20:36:21.794Z,98919.83
2022-12-20T20:38:50.862Z,98906.24
2022-12-20T20:41:18.849Z,98912.49
2022-12-20T20:43:46.512Z,98908.16
2022-12-20T20:46:16.296Z,98903.35
2022-12-20T20:48:44.841Z,98902.67
2022-12-20T20:51:13.154Z,98897.14
2022-12-20T20:53:40.900Z,98896.96
2022-12-20T20:56:09.528Z,98893.09
2022-12-20T20:58:37.923Z,98893.91
2022-12-20T21:01:07.041Z,98893.90
2022-12-20T21:03:35.215Z,98886.88
2022-12-20T21:06:37.042Z,98880.19
2022-12-20T21:08:53.082Z,98883.50
2022-12-20T21:11:29.353Z,98882.30
2022-12-20T21:13:58.007Z,98875.05
2022-12-20T21:16:25.842Z,98869.86
2022-12-20T21:18:55.874Z,98860.13
2022-12-20T21:21:24.866Z,98852.25
2022-12-20T21:23:53.883Z,98851.09
2022-12-20T21:26:22.948Z,98856.95
2022-12-20T21:28:50.892Z,98851.87
2022-12-20T21:31:19.198Z,98847.00
2022-12-20T21:33:47.011Z,98842.64
2022-12-20T21:36:17.762Z,98839.46
2022-12-20T21:39:12.300Z,98836.31
2022-12-20T21:41:40.649Z,98827.78
2022-12-20T21:44:11.308Z,98825.27
2022-12-20T21:46:39.140Z,98823.39
2022-12-20T21:49:06.884Z,98817.50
2022-12-20T21:51:34.529Z,98813.14
2022-12-20T21:54:03.795Z,98811.13
2022-12-20T21:56:33.829Z,98808.06
2022-12-20T21:59:02.555Z,98804.92
2022-12-20T22:01:31.784Z,98807.63
2022-12-20T22:04:05.357Z,98811.17
2022-12-20T22:06:34.749Z,98812.52
2022-12-20T22:09:04.131Z,98808.48
2022-12-20T22:11:31.717Z,98806.80
2022-12-20T22:13:59.951Z,98802.29
2022-12-20T22:16:29.423Z,98800.98
2022-12-20T22:18:58.720Z,98797.98
2022-12-20T22:21:31.649Z,98793.14
2022-12-20T22:24:00.861Z,98781.75
2022-12-20T22:26:30.990Z,98779.24
2022-12-20T22:29:05.707Z,98777.73
2022-12-20T22:31:34.874Z,98769.88
2022-12-20T22:34:02.797Z,98770.77
2022-12-20T22:36:30.889Z,98765.59
2022-12-20T22:38:58.772Z,98768.16
2022-12-20T22:41:31.362Z,98769.01
2022-12-20T22:43:59.554Z,98767.69
2022-12-20T22:46:30.559Z,98761.98
2022-12-20T22:48:59.541Z,98752.92
2022-12-20T22:51:28.034Z,98751.62
2022-12-20T22:53:56.973Z,98751.79
2022-12-20T22:56:24.554Z,98752.80
2022-12-20T22:58:52.174Z,98746.91
2022-12-20T23:01:20.583Z,98748.92
2022-12-20T23:03:48.688Z,98742.36
2022-12-20T23:06:20.182Z,98738.16
2022-12-20T23:08:48.634Z,98733.80
2022-12-20T23:11:19.168Z,98723.89
2022-12-20T23:13:46.681Z,98728.58
2022-12-20T23:16:14.237Z,98728.90
2022-12-20T23:18:42.093Z,98725.36
2022-12-20T23:21:10.497Z,98719.31
2022-12-20T23:23:38.569Z,98710.23
2022-12-20T23:26:14.369Z,98701.20
2022-12-20T23:28:42.947Z,98696.99
2022-12-20T23:31:10.878Z,98690.13
2022-12-20T23:33:39.020Z,98686.59
2022-12-20T23:36:07.461Z,98689.61
2022-12-20T23:38:36.490Z,98688.42
2022-12-20T23:41:09.061Z,98682.71
2022-12-20T23:43:37.157Z,98682.34
2022-12-20T23:46:10.574Z,98690.39
2022-12-20T23:48:38.223Z,98679.14
2022-12-20T23:51:07.436Z,98683.61
2022-12-20T23:53:35.305Z,98680.04
2022-12-20T23:56:04.529Z,98685.00
2022-12-20T23:58:32.714Z,98698.38
